Time;durP1;ratioP1;P1;durP2;ratioP2;P2;SDS_P1;SDS_P2;PMS_P1;PMS_P2;Temp;Humidity;BMP_temperature;BMP_pressure;BME280_temperature;BME280_humidity;BME280_pressure;Samples;Min_cycle;Max_cycle;Signal;HPM_P1;HPM_P2
2023/09/18 00:00:42;;;;;;;29.00;26.40;;;;;;;;;;4958056;29;20047;-78
2023/09/18 00:03:08;;;;;;;31.25;28.30;;;;;;;;;;4952118;29;20171;-78
2023/09/18 00:05:35;;;;;;;28.52;25.92;;;;;;;;;;4956362;29;20051;-79
2023/09/18 00:08:04;;;;;;;30.48;27.67;;;;;;;;;;4957892;29;20043;-78
2023/09/18 00:10:30;;;;;;;28.90;26.08;;;;;;;;;;4957015;29;20051;-78
2023/09/18 00:12:56;;;;;;;27.80;24.92;;;;;;;;;;4923664;29;20090;-78
2023/09/18 00:15:23;;;;;;;28.95;26.38;;;;;;;;;;4946890;29;20138;-78
2023/09/18 00:17:49;;;;;;;28.52;25.83;;;;;;;;;;4946868;29;20482;-78
2023/09/18 00:20:17;;;;;;;29.77;26.92;;;;;;;;;;4919803;29;20513;-78
2023/09/18 00:22:43;;;;;;;29.65;26.95;;;;;;;;;;4956739;29;20051;-78
2023/09/18 00:25:09;;;;;;;30.42;27.38;;;;;;;;;;4957431;29;20047;-78
2023/09/18 00:27:38;;;;;;;30.48;27.27;;;;;;;;;;4957855;29;20043;-78
2023/09/18 00:30:06;;;;;;;31.20;27.92;;;;;;;;;;4955896;29;20094;-78
2023/09/18 00:32:32;;;;;;;27.98;25.17;;;;;;;;;;4953209;29;20110;-78
2023/09/18 00:34:58;;;;;;;27.85;25.15;;;;;;;;;;4953506;29;20071;-78
2023/09/18 00:37:24;;;;;;;28.67;25.98;;;;;;;;;;4957412;28;20502;-78
2023/09/18 00:39:50;;;;;;;29.35;26.35;;;;;;;;;;4956575;29;20047;-78
2023/09/18 00:42:17;;;;;;;30.40;27.33;;;;;;;;;;4957711;29;20047;-78
2023/09/18 00:44:44;;;;;;;30.00;27.17;;;;;;;;;;4954952;29;20039;-78
2023/09/18 00:47:10;;;;;;;32.60;29.40;;;;;;;;;;4954742;29;20039;-78
2023/09/18 00:49:38;;;;;;;29.58;26.75;;;;;;;;;;4956520;29;20043;-78
2023/09/18 00:52:04;;;;;;;32.40;29.17;;;;;;;;;;4957045;29;20132;-78
2023/09/18 00:54:32;;;;;;;32.65;29.40;;;;;;;;;;4956868;29;20043;-78
2023/09/18 00:56:58;;;;;;;32.20;29.05;;;;;;;;;;4957040;29;20043;-78
2023/09/18 00:59:24;;;;;;;32.10;28.85;;;;;;;;;;4954900;29;20114;-78
2023/09/18 01:01:50;;;;;;;31.27;28.23;;;;;;;;;;4936378;29;20057;-77
2023/09/18 01:04:17;;;;;;;29.15;26.33;;;;;;;;;;4956312;29;20043;-78
2023/09/18 01:06:43;;;;;;;32.13;29.02;;;;;;;;;;4938902;29;20055;-78
2023/09/18 01:09:12;;;;;;;32.13;29.10;;;;;;;;;;4957118;29;20070;-78
2023/09/18 01:11:44;;;;;;;32.47;29.40;;;;;;;;;;4939700;29;20046;-78
2023/09/18 01:14:31;;;;;;;32.47;29.48;;;;;;;;;;4957484;29;20094;-77
2023/09/18 01:16:58;;;;;;;33.63;30.33;;;;;;;;;;4957394;29;20490;-78
2023/09/18 01:19:40;;;;;;;32.75;29.42;;;;;;;;;;4938982;29;20074;-78
2023/09/18 01:22:07;;;;;;;34.70;31.40;;;;;;;;;;4955936;29;20055;-78
2023/09/18 01:24:37;;;;;;;30.95;28.02;;;;;;;;;;4957455;29;20062;-79
2023/09/18 01:27:04;;;;;;;30.60;27.75;;;;;;;;;;4955345;29;20039;-78
2023/09/18 01:29:31;;;;;;;33.13;29.98;;;;;;;;;;4957099;29;20047;-78
2023/09/18 01:31:58;;;;;;;33.75;30.58;;;;;;;;;;4955877;29;20051;-77
2023/09/18 01:34:28;;;;;;;32.00;28.90;;;;;;;;;;4923055;29;20047;-78
2023/09/18 01:36:54;;;;;;;30.67;27.67;;;;;;;;;;4955762;29;20047;-78
2023/09/18 01:39:21;;;;;;;28.65;25.92;;;;;;;;;;4956607;29;20055;-78
2023/09/18 01:41:47;;;;;;;31.20;28.35;;;;;;;;;;4957046;29;20482;-77
2023/09/18 01:44:13;;;;;;;29.95;26.98;;;;;;;;;;4957367;29;20047;-78
2023/09/18 01:46:40;;;;;;;31.27;28.35;;;;;;;;;;4940731;29;20114;-78
2023/09/18 01:49:06;;;;;;;30.42;27.50;;;;;;;;;;4957178;29;20375;-77
2023/09/18 01:51:32;;;;;;;30.27;27.48;;;;;;;;;;4956182;29;20461;-78
2023/09/18 01:53:58;;;;;;;30.05;27.15;;;;;;;;;;4951931;28;20047;-78
2023/09/18 01:56:24;;;;;;;29.85;26.88;;;;;;;;;;4958863;28;20050;-78
2023/09/18 01:58:50;;;;;;;31.13;28.30;;;;;;;;;;4943750;29;20517;-78
2023/09/18 02:01:16;;;;;;;28.90;26.13;;;;;;;;;;4959135;29;20055;-78
2023/09/18 02:03:43;;;;;;;30.13;27.35;;;;;;;;;;4942968;29;20087;-78
2023/09/18 02:06:09;;;;;;;31.00;27.25;;;;;;;;;;4954348;28;20525;-78
2023/09/18 02:08:35;;;;;;;29.75;26.58;;;;;;;;;;4959687;28;20047;-78
2023/09/18 02:11:03;;;;;;;28.00;25.00;;;;;;;;;;4955478;29;20126;-78
2023/09/18 02:13:29;;;;;;;25.25;22.80;;;;;;;;;;4953438;29;20074;-78
2023/09/18 02:15:56;;;;;;;26.45;23.92;;;;;;;;;;4950683;29;20556;-78
2023/09/18 02:18:22;;;;;;;28.40;25.80;;;;;;;;;;4959850;28;20058;-78
2023/09/18 02:20:49;;;;;;;26.00;23.45;;;;;;;;;;4960598;28;20510;-78
2023/09/18 02:23:15;;;;;;;24.77;22.05;;;;;;;;;;4957159;28;20450;-78
2023/09/18 02:25:41;;;;;;;25.13;22.85;;;;;;;;;;4958354;29;20059;-78
2023/09/18 02:28:08;;;;;;;24.02;21.75;;;;;;;;;;4958684;29;20043;-78
2023/09/18 02:30:34;;;;;;;27.80;23.27;;;;;;;;;;4957087;29;20490;-78
2023/09/18 02:33:03;;;;;;;23.38;20.98;;;;;;;;;;4958566;29;20040;-78
2023/09/18 02:35:29;;;;;;;23.40;21.00;;;;;;;;;;4952828;29;20506;-78
2023/09/18 02:37:55;;;;;;;22.88;20.48;;;;;;;;;;4950325;29;20403;-78
2023/09/18 02:40:21;;;;;;;21.27;19.20;;;;;;;;;;4957991;29;20058;-78
2023/09/18 02:42:47;;;;;;;21.83;19.70;;;;;;;;;;4958669;29;20058;-78
2023/09/18 02:45:13;;;;;;;21.23;19.08;;;;;;;;;;4959506;29;20501;-78
2023/09/18 02:47:41;;;;;;;22.25;19.92;;;;;;;;;;4959551;29;20054;-78
2023/09/18 02:50:07;;;;;;;22.75;20.33;;;;;;;;;;4960039;29;20062;-77
2023/09/18 02:52:33;;;;;;;21.58;19.48;;;;;;;;;;4944184;29;20047;-78
2023/09/18 02:54:59;;;;;;;22.58;20.30;;;;;;;;;;4957931;29;20050;-78
2023/09/18 02:57:25;;;;;;;22.45;20.13;;;;;;;;;;4937740;29;20129;-79
2023/09/18 02:59:52;;;;;;;20.58;18.52;;;;;;;;;;4942110;29;20047;-78
2023/09/18 03:02:18;;;;;;;21.23;19.02;;;;;;;;;;4958092;29;20106;-78
2023/09/18 03:04:44;;;;;;;19.42;17.30;;;;;;;;;;4958831;29;20051;-78
2023/09/18 03:07:10;;;;;;;21.85;18.10;;;;;;;;;;4941597;29;20406;-78
2023/09/18 03:09:36;;;;;;;19.83;16.85;;;;;;;;;;4958160;29;20043;-78
2023/09/18 03:12:02;;;;;;;19.80;17.83;;;;;;;;;;4959464;29;20541;-78
2023/09/18 03:14:28;;;;;;;21.10;17.83;;;;;;;;;;4959404;29;20057;-78
2023/09/18 03:16:54;;;;;;;21.98;16.67;;;;;;;;;;4958506;29;20094;-78
2023/09/18 03:19:22;;;;;;;17.83;15.82;;;;;;;;;;4956898;28;20061;-78
2023/09/18 03:21:48;;;;;;;20.45;17.60;;;;;;;;;;4956652;28;20100;-78
2023/09/18 03:24:14;;;;;;;18.17;16.38;;;;;;;;;;4956760;28;20055;-78
2023/09/18 03:26:40;;;;;;;18.88;16.30;;;;;;;;;;4957885;29;20059;-78
2023/09/18 03:29:06;;;;;;;20.02;16.65;;;;;;;;;;4941238;29;20043;-79
2023/09/18 03:31:32;;;;;;;22.65;16.65;;;;;;;;;;4957774;29;20051;-78
2023/09/18 03:33:58;;;;;;;17.08;15.32;;;;;;;;;;4957397;29;20053;-78
2023/09/18 03:36:24;;;;;;;18.80;16.25;;;;;;;;;;4958694;28;20405;-78
2023/09/18 03:38:50;;;;;;;17.85;16.05;;;;;;;;;;4958785;29;20386;-78
2023/09/18 03:41:16;;;;;;;20.63;17.20;;;;;;;;;;4959258;29;20047;-78
2023/09/18 03:43:42;;;;;;;20.27;16.08;;;;;;;;;;4956023;29;20134;-78
2023/09/18 03:46:09;;;;;;;18.67;16.70;;;;;;;;;;4957376;29;20039;-78
2023/09/18 03:48:38;;;;;;;17.33;15.35;;;;;;;;;;4955871;29;20051;-78
2023/09/18 03:51:05;;;;;;;18.08;14.65;;;;;;;;;;4954871;29;20059;-78
2023/09/18 03:53:31;;;;;;;19.98;15.10;;;;;;;;;;4956947;29;20074;-77
2023/09/18 03:55:57;;;;;;;19.05;16.60;;;;;;;;;;4953808;29;20469;-78
2023/09/18 03:58:23;;;;;;;17.77;15.88;;;;;;;;;;4958539;29;20043;-78
2023/09/18 04:00:49;;;;;;;18.75;16.13;;;;;;;;;;4958163;29;20391;-78
2023/09/18 04:03:15;;;;;;;18.52;15.93;;;;;;;;;;4957954;29;20407;-78
2023/09/18 04:05:41;;;;;;;18.77;16.52;;;;;;;;;;4955347;29;20043;-78
2023/09/18 04:08:07;;;;;;;18.60;16.80;;;;;;;;;;4941722;28;20050;-78
2023/09/18 04:10:34;;;;;;;18.48;16.48;;;;;;;;;;4940556;29;20048;-78
2023/09/18 04:13:00;;;;;;;21.45;17.05;;;;;;;;;;4958602;29;20510;-78
2023/09/18 04:15:27;;;;;;;17.95;16.15;;;;;;;;;;4957719;28;20085;-78
2023/09/18 04:17:53;;;;;;;19.98;17.02;;;;;;;;;;4956608;28;20104;-79
2023/09/18 04:20:19;;;;;;;20.63;17.65;;;;;;;;;;4954766;29;20499;-78
2023/09/18 04:22:49;;;;;;;19.58;16.92;;;;;;;;;;4953117;29;20386;-78
2023/09/18 04:25:15;;;;;;;20.85;18.40;;;;;;;;;;4955685;29;20043;-77
2023/09/18 04:27:42;;;;;;;17.75;15.93;;;;;;;;;;4940657;29;20047;-78
2023/09/18 04:30:11;;;;;;;19.20;17.10;;;;;;;;;;4921119;29;20063;-78
2023/09/18 04:32:38;;;;;;;18.73;16.73;;;;;;;;;;4948503;29;20514;-78
2023/09/18 04:35:05;;;;;;;19.38;17.15;;;;;;;;;;4957450;29;20070;-78
2023/09/18 04:37:31;;;;;;;18.63;16.27;;;;;;;;;;4955848;29;20501;-78
2023/09/18 04:39:58;;;;;;;20.48;17.52;;;;;;;;;;4952671;29;20035;-78
2023/09/18 04:42:24;;;;;;;18.63;16.42;;;;;;;;;;4937305;29;20045;-78
2023/09/18 04:44:50;;;;;;;18.52;16.35;;;;;;;;;;4952154;29;20052;-78
2023/09/18 04:47:17;;;;;;;19.88;16.10;;;;;;;;;;4938536;29;20062;-78
2023/09/18 04:49:45;;;;;;;18.25;14.15;;;;;;;;;;4938710;29;20058;-78
2023/09/18 04:52:11;;;;;;;21.83;16.08;;;;;;;;;;4954998;29;20051;-78
2023/09/18 04:54:37;;;;;;;17.27;13.80;;;;;;;;;;4955772;29;20506;-78
2023/09/18 04:57:04;;;;;;;16.50;14.65;;;;;;;;;;4940604;29;20055;-78
2023/09/18 04:59:31;;;;;;;18.27;15.07;;;;;;;;;;4957827;29;20110;-78
2023/09/18 05:01:57;;;;;;;17.88;15.07;;;;;;;;;;4957024;29;20078;-78
2023/09/18 05:04:23;;;;;;;16.08;13.57;;;;;;;;;;4955689;29;20046;-78
2023/09/18 05:06:49;;;;;;;18.50;15.30;;;;;;;;;;4939249;29;20162;-78
2023/09/18 05:09:15;;;;;;;19.08;15.85;;;;;;;;;;4937632;29;20070;-78
2023/09/18 05:11:41;;;;;;;17.33;14.45;;;;;;;;;;4952938;29;20050;-78
2023/09/18 05:14:08;;;;;;;16.90;14.48;;;;;;;;;;4956809;29;20052;-80
2023/09/18 05:16:34;;;;;;;16.55;14.15;;;;;;;;;;4955744;29;20043;-78
2023/09/18 05:19:00;;;;;;;18.00;15.50;;;;;;;;;;4957027;29;20058;-78
2023/09/18 05:21:27;;;;;;;21.60;15.55;;;;;;;;;;4955664;29;20514;-78
2023/09/18 05:23:53;;;;;;;17.95;15.68;;;;;;;;;;4954522;29;20061;-78
2023/09/18 05:26:19;;;;;;;19.75;15.57;;;;;;;;;;4956424;29;20047;-78
2023/09/18 05:28:47;;;;;;;19.00;16.67;;;;;;;;;;4956314;28;20044;-78
2023/09/18 05:31:15;;;;;;;16.60;14.48;;;;;;;;;;4959232;29;20418;-78
2023/09/18 05:33:41;;;;;;;17.33;15.10;;;;;;;;;;4952289;29;20126;-77
2023/09/18 05:36:08;;;;;;;19.15;14.70;;;;;;;;;;4958188;29;20115;-78
2023/09/18 05:38:34;;;;;;;17.98;14.60;;;;;;;;;;4956906;29;20122;-77
2023/09/18 05:41:00;;;;;;;17.17;14.20;;;;;;;;;;4948490;29;20039;-78
2023/09/18 05:43:26;;;;;;;18.45;13.00;;;;;;;;;;4958443;29;20055;-77
2023/09/18 05:45:52;;;;;;;15.25;12.48;;;;;;;;;;4940792;29;20426;-78
2023/09/18 05:48:19;;;;;;;17.50;12.88;;;;;;;;;;4957254;28;20134;-78
2023/09/18 05:50:45;;;;;;;16.92;13.30;;;;;;;;;;4942320;29;20055;-79
2023/09/18 05:53:11;;;;;;;16.20;13.18;;;;;;;;;;4949551;29;20122;-78
2023/09/18 05:55:37;;;;;;;18.10;13.38;;;;;;;;;;4935094;29;20051;-77
2023/09/18 05:58:04;;;;;;;18.13;12.98;;;;;;;;;;4948972;29;20522;-78
2023/09/18 06:00:30;;;;;;;16.20;12.70;;;;;;;;;;4942110;29;20502;-78
2023/09/18 06:02:56;;;;;;;16.77;11.52;;;;;;;;;;4956265;28;20511;-78
2023/09/18 06:05:23;;;;;;;14.13;11.45;;;;;;;;;;4937382;29;20521;-78
2023/09/18 06:07:49;;;;;;;14.98;11.68;;;;;;;;;;4950629;29;20127;-78
2023/09/18 06:10:17;;;;;;;15.90;10.50;;;;;;;;;;4947292;28;20118;-80
2023/09/18 06:12:43;;;;;;;14.55;10.85;;;;;;;;;;4949109;29;20087;-78
2023/09/18 06:15:10;;;;;;;15.07;10.38;;;;;;;;;;4956626;29;20147;-78
2023/09/18 06:17:39;;;;;;;18.02;10.75;;;;;;;;;;4956537;29;20043;-78
2023/09/18 06:20:07;;;;;;;14.93;10.20;;;;;;;;;;4939789;29;20078;-77
2023/09/18 06:22:35;;;;;;;16.92;10.48;;;;;;;;;;4939965;29;20055;-77
2023/09/18 06:25:01;;;;;;;14.07;10.27;;;;;;;;;;4956137;29;20509;-77
2023/09/18 06:27:27;;;;;;;16.95;10.65;;;;;;;;;;4956937;29;20051;-77
2023/09/18 06:29:53;;;;;;;13.00;10.23;;;;;;;;;;4957375;29;20067;-78
2023/09/18 06:32:19;;;;;;;14.80;10.15;;;;;;;;;;4958275;29;20501;-78
2023/09/18 06:34:47;;;;;;;14.40;9.90;;;;;;;;;;4958051;29;20043;-78
2023/09/18 06:37:13;;;;;;;18.45;10.02;;;;;;;;;;4957652;28;20047;-78
2023/09/18 06:39:39;;;;;;;13.93;9.82;;;;;;;;;;4958202;29;20055;-78
2023/09/18 06:42:05;;;;;;;16.92;9.73;;;;;;;;;;4957777;28;20059;-78
2023/09/18 06:44:31;;;;;;;14.52;10.38;;;;;;;;;;4956970;29;20074;-78
2023/09/18 06:46:58;;;;;;;17.48;9.68;;;;;;;;;;4958041;29;20498;-78
2023/09/18 06:49:24;;;;;;;17.40;10.57;;;;;;;;;;4941198;29;20054;-78
2023/09/18 06:51:50;;;;;;;19.33;10.75;;;;;;;;;;4957719;28;20039;-78
2023/09/18 06:54:16;;;;;;;18.77;10.82;;;;;;;;;;4958382;29;20062;-78
2023/09/18 06:56:44;;;;;;;18.90;10.57;;;;;;;;;;4954189;29;20118;-78
2023/09/18 06:59:11;;;;;;;15.18;11.32;;;;;;;;;;4958310;29;20055;-79
2023/09/18 07:01:37;;;;;;;16.08;10.00;;;;;;;;;;4956519;29;20094;-78
2023/09/18 07:04:04;;;;;;;22.55;10.65;;;;;;;;;;4956676;29;20050;-78
2023/09/18 07:06:30;;;;;;;17.73;11.02;;;;;;;;;;4956147;29;20043;-78
2023/09/18 07:08:56;;;;;;;18.90;11.10;;;;;;;;;;4955979;29;20035;-79
2023/09/18 07:11:23;;;;;;;14.77;11.30;;;;;;;;;;4960949;28;20051;-77
2023/09/18 07:13:49;;;;;;;15.75;10.30;;;;;;;;;;4961018;28;20067;-78
2023/09/18 07:16:15;;;;;;;16.15;10.57;;;;;;;;;;4969719;28;20051;-78
2023/09/18 07:18:41;;;;;;;15.55;10.70;;;;;;;;;;4967141;28;20409;-78
2023/09/18 07:21:07;;;;;;;18.08;12.35;;;;;;;;;;4935241;29;20039;-77
2023/09/18 07:23:37;;;;;;;19.23;12.80;;;;;;;;;;4955111;28;20055;-77
2023/09/18 07:26:03;;;;;;;20.67;12.88;;;;;;;;;;4905273;29;20062;-78
2023/09/18 07:28:29;;;;;;;19.10;13.05;;;;;;;;;;4938581;29;20405;-79
2023/09/18 07:30:55;;;;;;;16.92;12.35;;;;;;;;;;4948335;29;20078;-79
2023/09/18 07:33:22;;;;;;;20.70;14.07;;;;;;;;;;4958469;29;20062;-78
2023/09/18 07:35:48;;;;;;;18.05;13.43;;;;;;;;;;4959019;28;20083;-78
2023/09/18 07:38:15;;;;;;;16.40;12.63;;;;;;;;;;4952293;29;20075;-78
2023/09/18 07:40:41;;;;;;;17.58;12.90;;;;;;;;;;4948543;29;20047;-77
2023/09/18 07:43:07;;;;;;;19.17;12.98;;;;;;;;;;4938019;29;20051;-77
2023/09/18 07:45:34;;;;;;;31.48;14.73;;;;;;;;;;4955145;29;20123;-77
2023/09/18 07:48:00;;;;;;;72.72;15.48;;;;;;;;;;4937968;29;20050;-77
2023/09/18 07:50:26;;;;;;;18.60;11.90;;;;;;;;;;4954510;29;20055;-78
2023/09/18 07:52:53;;;;;;;15.70;11.65;;;;;;;;;;4960682;28;20101;-77
2023/09/18 07:55:19;;;;;;;32.70;12.10;;;;;;;;;;4964688;28;20059;-76
2023/09/18 07:57:45;;;;;;;18.10;11.23;;;;;;;;;;4937714;29;20055;-77
2023/09/18 08:00:12;;;;;;;14.02;11.23;;;;;;;;;;4954533;29;20051;-77
2023/09/18 08:02:39;;;;;;;16.63;11.98;;;;;;;;;;4952919;28;20086;-76
2023/09/18 08:05:05;;;;;;;24.13;11.93;;;;;;;;;;4954145;29;20129;-76
2023/09/18 08:07:32;;;;;;;16.70;11.68;;;;;;;;;;4958447;28;20057;-76
2023/09/18 08:09:58;;;;;;;20.88;13.57;;;;;;;;;;4973980;28;20453;-76
2023/09/18 08:12:24;;;;;;;18.65;13.00;;;;;;;;;;4961180;28;20467;-77
2023/09/18 08:14:50;;;;;;;14.07;11.38;;;;;;;;;;4950879;29;20062;-77
2023/09/18 08:17:17;;;;;;;16.75;11.60;;;;;;;;;;4954626;29;20134;-76
2023/09/18 08:19:44;;;;;;;15.30;11.80;;;;;;;;;;4936761;28;20051;-76
2023/09/18 08:22:15;;;;;;;15.02;11.63;;;;;;;;;;4954223;28;20047;-76
2023/09/18 08:24:41;;;;;;;16.20;13.40;;;;;;;;;;4951683;29;20126;-77
2023/09/18 08:27:07;;;;;;;15.90;13.50;;;;;;;;;;4954406;28;20062;-76
2023/09/18 08:29:33;;;;;;;17.73;12.63;;;;;;;;;;4945477;29;20146;-76
2023/09/18 08:31:59;;;;;;;16.23;12.88;;;;;;;;;;4948909;29;20043;-76
2023/09/18 08:34:26;;;;;;;15.85;13.13;;;;;;;;;;4953005;28;20055;-77
2023/09/18 08:36:52;;;;;;;19.98;12.63;;;;;;;;;;4938897;28;20054;-76
2023/09/18 08:39:18;;;;;;;17.27;13.20;;;;;;;;;;4951991;29;20103;-77
2023/09/18 08:41:46;;;;;;;16.25;12.68;;;;;;;;;;4950338;29;20410;-76
2023/09/18 08:44:12;;;;;;;17.73;12.85;;;;;;;;;;4935929;29;20103;-77
2023/09/18 08:46:38;;;;;;;14.48;12.23;;;;;;;;;;4951135;28;20418;-76
2023/09/18 08:49:05;;;;;;;15.10;11.77;;;;;;;;;;4934385;29;20190;-76
2023/09/18 08:51:31;;;;;;;15.63;13.32;;;;;;;;;;4940239;28;20051;-76
2023/09/18 08:53:58;;;;;;;17.63;12.63;;;;;;;;;;4949363;29;20044;-76
2023/09/18 08:56:24;;;;;;;17.40;13.32;;;;;;;;;;4936877;29;20079;-76
2023/09/18 08:58:50;;;;;;;16.60;12.63;;;;;;;;;;4954073;29;20051;-76
2023/09/18 09:01:19;;;;;;;18.17;13.93;;;;;;;;;;4926619;29;20454;-76
2023/09/18 09:03:45;;;;;;;17.45;13.63;;;;;;;;;;4945832;28;20354;-76
2023/09/18 09:06:12;;;;;;;20.50;13.75;;;;;;;;;;4957632;29;20059;-77
2023/09/18 09:08:38;;;;;;;15.27;13.40;;;;;;;;;;4957666;29;20051;-77
2023/09/18 09:11:04;;;;;;;21.02;14.10;;;;;;;;;;4958023;28;20051;-76
2023/09/18 09:13:30;;;;;;;19.75;13.93;;;;;;;;;;4957108;29;20047;-76
2023/09/18 09:16:00;;;;;;;18.08;13.73;;;;;;;;;;4957865;29;20051;-75
2023/09/18 09:18:31;;;;;;;17.25;14.07;;;;;;;;;;4956917;29;20062;-76
2023/09/18 09:20:59;;;;;;;21.15;14.23;;;;;;;;;;4956938;29;20051;-76
2023/09/18 09:23:26;;;;;;;22.65;14.05;;;;;;;;;;4956658;29;20055;-76
2023/09/18 09:25:52;;;;;;;16.90;14.18;;;;;;;;;;4941954;29;20457;-75
2023/09/18 09:28:29;;;;;;;18.10;13.88;;;;;;;;;;4953555;28;20035;-77
2023/09/18 09:31:02;;;;;;;16.67;12.95;;;;;;;;;;4960205;28;20482;-75
2023/09/18 09:33:29;;;;;;;16.92;13.32;;;;;;;;;;4938277;29;20040;-76
2023/09/18 09:35:56;;;;;;;18.42;13.45;;;;;;;;;;4938504;29;20075;-77
2023/09/18 09:38:28;;;;;;;17.02;12.77;;;;;;;;;;4954358;28;20078;-76
2023/09/18 09:40:54;;;;;;;16.70;12.98;;;;;;;;;;4957465;29;20513;-76
2023/09/18 09:43:20;;;;;;;15.45;12.43;;;;;;;;;;4957298;29;20058;-75
2023/09/18 09:45:47;;;;;;;17.40;12.00;;;;;;;;;;4957283;29;20054;-76
2023/09/18 09:48:13;;;;;;;16.30;12.05;;;;;;;;;;4956886;29;20123;-75
2023/09/18 09:50:46;;;;;;;15.82;12.57;;;;;;;;;;4957196;29;20129;-76
2023/09/18 09:53:13;;;;;;;15.52;11.80;;;;;;;;;;4955755;28;20501;-76
2023/09/18 09:55:41;;;;;;;14.27;10.82;;;;;;;;;;4957314;28;20102;-76
2023/09/18 09:58:08;;;;;;;13.07;10.43;;;;;;;;;;4956547;28;20061;-76
2023/09/18 10:00:42;;;;;;;14.23;10.80;;;;;;;;;;4953655;29;20093;-76
2023/09/18 10:03:09;;;;;;;13.23;10.25;;;;;;;;;;4956872;28;20070;-78
2023/09/18 10:05:36;;;;;;;11.95;9.00;;;;;;;;;;4947085;29;20051;-76
2023/09/18 10:08:10;;;;;;;12.27;9.32;;;;;;;;;;4956855;29;20047;-76
2023/09/18 10:10:38;;;;;;;15.38;9.70;;;;;;;;;;4956163;29;20055;-77
2023/09/18 10:13:07;;;;;;;14.95;8.50;;;;;;;;;;4954900;29;20058;-77
2023/09/18 10:15:38;;;;;;;14.10;8.27;;;;;;;;;;4958732;28;20039;-76
2023/09/18 10:18:07;;;;;;;11.38;7.50;;;;;;;;;;4969677;28;20078;-76
2023/09/18 10:20:37;;;;;;;10.57;7.43;;;;;;;;;;4957060;29;20050;-76
2023/09/18 10:23:05;;;;;;;14.20;7.70;;;;;;;;;;4955638;29;20130;-76
2023/09/18 10:25:32;;;;;;;11.57;7.05;;;;;;;;;;4956199;28;20047;-78
2023/09/18 10:28:01;;;;;;;9.63;6.50;;;;;;;;;;4956387;29;20126;-77
2023/09/18 10:30:28;;;;;;;13.02;6.88;;;;;;;;;;4953811;28;20083;-76
2023/09/18 10:32:54;;;;;;;11.10;6.47;;;;;;;;;;4954953;29;20095;-77
2023/09/18 10:35:21;;;;;;;10.48;6.32;;;;;;;;;;4952866;28;20514;-77
2023/09/18 10:37:51;;;;;;;12.48;6.20;;;;;;;;;;4949451;28;20079;-76
2023/09/18 10:40:17;;;;;;;10.73;5.90;;;;;;;;;;4946290;29;20044;-76
2023/09/18 10:42:46;;;;;;;9.10;5.13;;;;;;;;;;4946469;29;20087;-75
2023/09/18 10:45:14;;;;;;;9.65;5.20;;;;;;;;;;4954958;29;20175;-76
2023/09/18 10:47:42;;;;;;;9.32;5.25;;;;;;;;;;4945984;29;20047;-76
2023/09/18 10:50:09;;;;;;;6.88;5.05;;;;;;;;;;4948032;29;20059;-75
2023/09/18 10:52:36;;;;;;;10.55;4.90;;;;;;;;;;4939198;29;20051;-75
2023/09/18 10:55:04;;;;;;;10.07;5.10;;;;;;;;;;4936678;29;20051;-77
2023/09/18 10:57:34;;;;;;;9.95;4.97;;;;;;;;;;4955103;29;20051;-77
2023/09/18 11:00:00;;;;;;;9.27;4.70;;;;;;;;;;4953042;28;20050;-75
2023/09/18 11:02:28;;;;;;;10.68;3.97;;;;;;;;;;4951425;28;20063;-77
2023/09/18 11:04:54;;;;;;;8.75;3.90;;;;;;;;;;4952328;28;20082;-77
2023/09/18 11:07:21;;;;;;;8.02;3.95;;;;;;;;;;4934155;29;20177;-75
2023/09/18 11:09:49;;;;;;;7.05;3.63;;;;;;;;;;4948768;29;20130;-76
2023/09/18 11:12:17;;;;;;;8.57;4.05;;;;;;;;;;4952727;29;20040;-77
2023/09/18 11:14:44;;;;;;;7.97;3.85;;;;;;;;;;4956331;29;20055;-77
2023/09/18 11:17:29;;;;;;;7.90;3.83;;;;;;;;;;4954355;29;20134;-77
2023/09/18 11:20:12;;;;;;;6.88;3.70;;;;;;;;;;4945655;29;20553;-77
2023/09/18 11:22:46;;;;;;;6.53;3.28;;;;;;;;;;4922465;29;20055;-76
2023/09/18 11:25:31;;;;;;;6.85;3.03;;;;;;;;;;4953547;29;20062;-77
2023/09/18 11:27:58;;;;;;;8.57;3.28;;;;;;;;;;4926833;29;20047;-78
2023/09/18 11:30:24;;;;;;;9.40;3.50;;;;;;;;;;4922341;29;20043;-78
2023/09/18 11:32:50;;;;;;;8.05;3.03;;;;;;;;;;4952317;29;20039;-77
2023/09/18 11:35:18;;;;;;;5.70;2.90;;;;;;;;;;4954851;29;20055;-77
2023/09/18 11:37:44;;;;;;;6.63;2.85;;;;;;;;;;4934428;29;20095;-77
2023/09/18 11:40:28;;;;;;;7.18;3.08;;;;;;;;;;4955323;29;20058;-77
2023/09/18 11:43:13;;;;;;;7.70;2.65;;;;;;;;;;4952756;29;20043;-77
2023/09/18 11:45:42;;;;;;;9.18;3.10;;;;;;;;;;4947837;29;20036;-76
2023/09/18 11:48:11;;;;;;;7.43;3.38;;;;;;;;;;4947703;29;20632;-77
2023/09/18 11:50:39;;;;;;;6.95;2.58;;;;;;;;;;4946505;29;20182;-77
2023/09/18 11:53:06;;;;;;;7.32;2.70;;;;;;;;;;4943401;29;20044;-76
2023/09/18 11:55:34;;;;;;;7.30;2.85;;;;;;;;;;4945454;29;20087;-77
2023/09/18 11:58:01;;;;;;;8.88;2.80;;;;;;;;;;4948135;29;20122;-75
2023/09/18 12:00:29;;;;;;;5.28;2.30;;;;;;;;;;4944396;29;20055;-75
2023/09/18 12:02:57;;;;;;;7.70;2.40;;;;;;;;;;4925593;29;20047;-78
2023/09/18 12:05:26;;;;;;;6.47;2.45;;;;;;;;;;4953637;29;20054;-76
2023/09/18 12:07:53;;;;;;;6.88;2.45;;;;;;;;;;4933854;29;20502;-76
2023/09/18 12:10:22;;;;;;;6.88;2.83;;;;;;;;;;4953502;29;20082;-77
2023/09/18 12:12:49;;;;;;;12.35;2.60;;;;;;;;;;4953299;29;20058;-77
2023/09/18 12:15:17;;;;;;;12.30;2.65;;;;;;;;;;4953846;29;20557;-77
2023/09/18 12:17:43;;;;;;;6.60;2.55;;;;;;;;;;4954053;29;20047;-76
2023/09/18 12:20:19;;;;;;;9.38;2.42;;;;;;;;;;4920019;29;20126;-76
2023/09/18 12:22:48;;;;;;;11.38;2.53;;;;;;;;;;4930247;29;20135;-76
2023/09/18 12:25:15;;;;;;;8.30;2.10;;;;;;;;;;4952527;29;20051;-77
2023/09/18 12:27:41;;;;;;;7.22;2.38;;;;;;;;;;4931932;29;20071;-76
2023/09/18 12:30:08;;;;;;;7.10;2.40;;;;;;;;;;4953398;29;20486;-76
2023/09/18 12:32:38;;;;;;;5.32;2.40;;;;;;;;;;4952753;28;20418;-77
2023/09/18 12:35:06;;;;;;;5.70;2.38;;;;;;;;;;4953872;29;20043;-75
2023/09/18 12:37:33;;;;;;;15.75;2.88;;;;;;;;;;4951743;28;20083;-76
2023/09/18 12:40:03;;;;;;;7.45;2.78;;;;;;;;;;4950900;28;20126;-76
2023/09/18 12:42:33;;;;;;;5.72;2.50;;;;;;;;;;4951447;29;20058;-78
2023/09/18 12:45:00;;;;;;;7.30;2.70;;;;;;;;;;4952743;29;20513;-77
2023/09/18 12:47:26;;;;;;;6.15;2.40;;;;;;;;;;4950824;29;20417;-76
2023/09/18 12:49:52;;;;;;;6.35;2.53;;;;;;;;;;4953313;29;20043;-76
2023/09/18 12:52:22;;;;;;;6.25;2.72;;;;;;;;;;4947707;29;20047;-76
2023/09/18 12:54:53;;;;;;;7.33;2.33;;;;;;;;;;4953838;28;20055;-76
2023/09/18 12:57:20;;;;;;;7.20;2.75;;;;;;;;;;4935494;29;20342;-77
2023/09/18 12:59:49;;;;;;;6.95;2.35;;;;;;;;;;4953706;29;20050;-76
2023/09/18 13:02:15;;;;;;;6.68;2.50;;;;;;;;;;4953309;29;20047;-77
2023/09/18 13:04:41;;;;;;;8.02;2.78;;;;;;;;;;4952943;29;20107;-76
2023/09/18 13:07:08;;;;;;;5.45;2.47;;;;;;;;;;4954036;29;20370;-77
2023/09/18 13:09:35;;;;;;;7.35;2.95;;;;;;;;;;4936993;29;20059;-76
2023/09/18 13:12:01;;;;;;;7.28;2.60;;;;;;;;;;4952507;29;20065;-77
2023/09/18 13:14:27;;;;;;;9.45;2.60;;;;;;;;;;4953733;29;20039;-79
2023/09/18 13:16:53;;;;;;;6.88;2.67;;;;;;;;;;4953466;29;20048;-78
2023/09/18 13:19:19;;;;;;;7.18;2.53;;;;;;;;;;4953409;29;20053;-77
2023/09/18 13:21:49;;;;;;;6.47;2.67;;;;;;;;;;4953856;28;20078;-78
2023/09/18 13:24:28;;;;;;;7.80;2.60;;;;;;;;;;4953786;29;20077;-78
2023/09/18 13:26:55;;;;;;;6.43;2.83;;;;;;;;;;4953902;29;20047;-77
2023/09/18 13:29:21;;;;;;;8.60;3.70;;;;;;;;;;4953018;29;20044;-78
2023/09/18 13:31:47;;;;;;;7.93;3.70;;;;;;;;;;4951716;29;20043;-79
2023/09/18 13:34:17;;;;;;;7.28;2.83;;;;;;;;;;4953500;28;20069;-77
2023/09/18 13:36:43;;;;;;;8.30;3.30;;;;;;;;;;4955311;28;20078;-79
2023/09/18 13:39:11;;;;;;;7.57;3.30;;;;;;;;;;4952427;29;20097;-77
2023/09/18 13:41:37;;;;;;;5.85;3.08;;;;;;;;;;4948408;28;20409;-79
2023/09/18 13:44:04;;;;;;;7.32;3.63;;;;;;;;;;4963167;28;20122;-78
2023/09/18 13:46:30;;;;;;;6.95;3.22;;;;;;;;;;4954187;29;20110;-78
2023/09/18 13:48:56;;;;;;;7.13;3.40;;;;;;;;;;4953569;29;20458;-77
2023/09/18 13:51:22;;;;;;;6.47;3.60;;;;;;;;;;4955280;28;20401;-77
2023/09/18 13:53:48;;;;;;;10.38;3.60;;;;;;;;;;4957440;29;20047;-77
2023/09/18 13:56:14;;;;;;;8.48;3.67;;;;;;;;;;4960441;29;20043;-79
2023/09/18 13:58:41;;;;;;;7.25;3.35;;;;;;;;;;4949208;29;20135;-82
2023/09/18 14:01:08;;;;;;;8.27;3.72;;;;;;;;;;4932933;29;20051;-81
2023/09/18 14:03:34;;;;;;;7.13;3.58;;;;;;;;;;4961757;29;20070;-80
2023/09/18 14:06:00;;;;;;;7.75;3.58;;;;;;;;;;4963653;28;20062;-79
2023/09/18 14:08:26;;;;;;;7.68;3.60;;;;;;;;;;4960820;29;20078;-80
2023/09/18 14:10:52;;;;;;;7.60;3.50;;;;;;;;;;4959513;29;20055;-78
2023/09/18 14:13:18;;;;;;;9.07;3.45;;;;;;;;;;4960910;29;20058;-79
2023/09/18 14:15:44;;;;;;;7.53;3.50;;;;;;;;;;4959806;28;20051;-79
2023/09/18 14:18:13;;;;;;;7.85;3.60;;;;;;;;;;4960239;29;20074;-80
2023/09/18 14:20:41;;;;;;;9.75;3.33;;;;;;;;;;4963972;29;20126;-81
2023/09/18 14:23:07;;;;;;;8.07;3.22;;;;;;;;;;4965098;29;20070;-83